createdAt,value
2023-10-28T00:00:59.394Z,72.60
2023-10-28T00:03:27.254Z,72.97
2023-10-28T00:05:55.312Z,73.05
2023-10-28T00:08:22.820Z,73.33
2023-10-28T00:10:50.400Z,71.69
2023-10-28T00:13:17.925Z,71.32
2023-10-28T00:15:45.452Z,72.65
2023-10-28T00:18:13.650Z,72.15
2023-10-28T00:20:42.603Z,72.42
2023-10-28T00:23:10.121Z,73.42
2023-10-28T00:25:38.329Z,73.22
2023-10-28T00:28:05.899Z,72.43
2023-10-28T00:30:33.409Z,73.11
2023-10-28T00:33:01.051Z,73.33
2023-10-28T00:35:31.945Z,73.98
2023-10-28T00:37:59.499Z,74.69
2023-10-28T00:40:27.843Z,73.60
2023-10-28T00:42:55.287Z,73.13
2023-10-28T00:45:22.904Z,73.78
2023-10-28T00:47:50.418Z,74.31
2023-10-28T00:50:17.930Z,75.26
2023-10-28T00:52:49.737Z,76.32
2023-10-28T00:55:17.193Z,75.22
2023-10-28T00:57:45.232Z,74.63
2023-10-28T01:00:16.270Z,73.98
2023-10-28T01:02:44.251Z,74.39
2023-10-28T01:05:13.284Z,74.92
2023-10-28T01:07:44.927Z,76.00
2023-10-28T01:10:12.944Z,74.67
2023-10-28T01:12:40.391Z,74.05
2023-10-28T01:15:08.756Z,74.86
2023-10-28T01:17:36.825Z,76.03
2023-10-28T01:20:04.702Z,77.48
2023-10-28T01:22:32.099Z,77.22
2023-10-28T01:24:59.447Z,76.94
2023-10-28T01:27:27.700Z,77.63
2023-10-28T01:29:56.489Z,78.45
2023-10-28T01:39:49.208Z,82.19
2023-10-28T01:42:16.902Z,83.85
2023-10-28T01:44:44.066Z,85.49
2023-10-28T01:47:10.832Z,85.58
2023-10-28T01:49:41.647Z,86.62
2023-10-28T01:52:09.936Z,88.25
2023-10-28T02:03:56.973Z,88.85
2023-10-28T02:06:24.455Z,88.62
2023-10-28T02:08:51.552Z,90.21
2023-10-28T02:11:18.333Z,96.55
2023-10-28T02:13:46.433Z,59.60
2023-10-28T02:16:13.684Z,39.40
2023-10-28T02:18:41.416Z,100.00
2023-10-28T08:35:34.402Z,100.00
2023-10-28T08:38:06.330Z,100.00
2023-10-28T08:40:34.613Z,100.00
2023-10-28T08:43:04.532Z,100.00
2023-10-28T08:45:31.777Z,100.00
2023-10-28T08:47:59.362Z,100.00
2023-10-28T08:50:26.608Z,100.00
2023-10-28T08:52:56.394Z,100.00
2023-10-28T08:55:26.528Z,100.00
2023-10-28T08:57:53.772Z,100.00
2023-10-28T09:00:23.188Z,100.00
2023-10-28T09:02:50.468Z,100.00
2023-10-28T09:05:17.816Z,100.00
2023-10-28T09:07:46.507Z,100.00
2023-10-28T09:10:13.861Z,100.00
2023-10-28T09:12:41.713Z,100.00
2023-10-28T09:15:12.179Z,100.00
2023-10-28T09:17:42.252Z,100.00
2023-10-28T09:20:12.804Z,100.00
2023-10-28T09:22:42.885Z,100.00
2023-10-28T09:25:11.267Z,100.00
2023-10-28T09:27:39.689Z,100.00
2023-10-28T09:30:08.716Z,95.12
2023-10-28T09:32:35.924Z,89.34
2023-10-28T09:35:06.465Z,89.00
2023-10-28T09:37:38.080Z,86.90
2023-10-28T09:40:07.001Z,83.14
2023-10-28T09:42:35.669Z,81.77
2023-10-28T09:45:07.289Z,79.04
2023-10-28T09:47:54.046Z,81.37
2023-10-28T09:50:22.212Z,82.39
2023-10-28T09:52:52.235Z,81.31
2023-10-28T09:55:21.641Z,80.12
2023-10-28T09:57:48.762Z,79.87
2023-10-28T10:00:21.873Z,80.46
2023-10-28T10:03:09.470Z,82.40
2023-10-28T10:05:54.348Z,82.59
2023-10-28T10:08:25.077Z,80.17
2023-10-28T10:10:54.192Z,78.91
2023-10-28T10:13:22.853Z,78.23
2023-10-28T10:16:06.124Z,80.53
2023-10-28T10:18:47.563Z,80.02
2023-10-28T10:21:19.640Z,78.19
2023-10-28T10:23:51.394Z,77.07
2023-10-28T10:26:34.904Z,78.18
2023-10-28T10:29:04.410Z,78.86
2023-10-28T10:31:32.973Z,81.48
2023-10-28T10:34:10.561Z,80.49
2023-10-28T10:36:42.766Z,78.68
2023-10-28T10:39:17.054Z,79.08
2023-10-28T10:41:51.615Z,79.70
2023-10-28T10:44:34.859Z,79.87
2023-10-28T10:47:02.445Z,80.44
2023-10-28T10:49:31.074Z,79.33
2023-10-28T10:51:59.886Z,78.49
2023-10-28T10:54:34.956Z,78.89
2023-10-28T10:57:03.200Z,78.77
2023-10-28T10:59:33.270Z,79.39
2023-10-28T11:02:03.878Z,75.64
2023-10-28T11:04:32.218Z,72.67
2023-10-28T11:07:01.661Z,72.65
2023-10-28T11:09:30.620Z,73.64
2023-10-28T11:11:57.957Z,74.48
2023-10-28T11:14:25.488Z,74.74
2023-10-28T11:16:52.680Z,74.57
2023-10-28T11:19:19.992Z,75.03
2023-10-28T11:21:47.276Z,76.25
2023-10-28T11:24:15.051Z,76.14
2023-10-28T11:26:45.898Z,72.22
2023-10-28T11:29:15.299Z,71.97
2023-10-28T11:31:42.390Z,71.31
2023-10-28T11:34:10.065Z,72.04
2023-10-28T11:36:37.657Z,72.67
2023-10-28T11:39:15.233Z,73.59
2023-10-28T11:41:44.723Z,74.05
2023-10-28T11:44:12.570Z,74.72
2023-10-28T11:46:40.073Z,74.99
2023-10-28T11:49:07.238Z,74.30
2023-10-28T11:51:34.169Z,74.89
2023-10-28T11:54:04.429Z,76.36
2023-10-28T11:56:34.533Z,76.95
2023-10-28T11:59:02.230Z,78.26
2023-10-28T12:01:32.932Z,77.88
2023-10-28T12:04:00.197Z,76.02
2023-10-28T12:06:30.671Z,76.27
2023-10-28T12:08:59.207Z,76.99
2023-10-28T12:11:29.292Z,78.20
2023-10-28T12:13:59.627Z,78.13
2023-10-28T12:16:26.803Z,78.32
2023-10-28T12:18:54.017Z,76.46
2023-10-28T12:21:21.498Z,74.99
2023-10-28T12:23:49.321Z,75.75
2023-10-28T12:26:16.313Z,76.82
2023-10-28T12:28:43.431Z,78.07
2023-10-28T12:31:10.393Z,78.62
2023-10-28T12:33:39.123Z,77.66
2023-10-28T12:36:10.908Z,76.77
2023-10-28T12:38:38.082Z,76.91
2023-10-28T12:41:05.263Z,77.29
2023-10-28T12:43:32.784Z,77.67
2023-10-28T12:46:00.184Z,77.52
2023-10-28T12:48:27.288Z,78.73
2023-10-28T12:50:54.332Z,77.44
2023-10-28T12:53:21.426Z,76.23
2023-10-28T12:55:48.635Z,75.92
2023-10-28T12:58:18.067Z,76.63
2023-10-28T13:00:45.593Z,77.12
2023-10-28T13:03:13.750Z,78.10
2023-10-28T13:05:40.926Z,78.26
2023-10-28T13:08:08.530Z,76.96
2023-10-28T13:10:35.743Z,75.95
2023-10-28T13:13:04.107Z,75.59
2023-10-28T13:15:32.314Z,76.38
2023-10-28T13:17:59.385Z,76.95
2023-10-28T13:20:28.054Z,77.16
2023-10-28T13:22:55.484Z,76.87
2023-10-28T13:25:22.628Z,76.08
2023-10-28T13:27:49.670Z,75.76
2023-10-28T13:30:16.920Z,75.82
2023-10-28T13:32:55.275Z,76.59
2023-10-28T13:35:24.109Z,76.27
2023-10-28T13:37:51.993Z,76.50
2023-10-28T13:40:19.184Z,74.42
2023-10-28T13:42:46.819Z,73.36
2023-10-28T13:45:13.854Z,73.84
2023-10-28T13:47:43.172Z,74.11
2023-10-28T13:50:10.795Z,73.88
2023-10-28T13:52:39.560Z,74.53
2023-10-28T13:55:07.385Z,75.61
2023-10-28T13:57:34.513Z,75.54
2023-10-28T14:00:06.886Z,74.20
2023-10-28T14:02:34.320Z,73.65
2023-10-28T14:05:02.355Z,73.35
2023-10-28T14:07:29.591Z,73.94
2023-10-28T14:09:57.228Z,75.07
2023-10-28T14:12:26.081Z,75.72
2023-10-28T14:14:53.064Z,76.13
2023-10-28T14:17:20.298Z,75.33
2023-10-28T14:19:47.542Z,74.14
2023-10-28T14:22:15.232Z,74.09
2023-10-28T14:24:42.424Z,74.48
2023-10-28T14:27:09.422Z,75.07
2023-10-28T14:29:36.601Z,76.35
2023-10-28T14:32:05.075Z,77.02
2023-10-28T14:34:32.000Z,76.94
2023-10-28T14:36:58.982Z,75.38
2023-10-28T14:39:28.966Z,74.80
2023-10-28T14:41:56.111Z,75.11
2023-10-28T14:44:23.194Z,75.75
2023-10-28T14:46:50.326Z,76.58
2023-10-28T14:49:17.462Z,77.49
2023-10-28T14:51:44.505Z,77.46
2023-10-28T14:54:11.564Z,76.02
2023-10-28T14:56:38.747Z,75.55
2023-10-28T14:59:07.735Z,75.83
2023-10-28T15:01:34.773Z,76.87
2023-10-28T15:04:02.059Z,78.01
2023-10-28T15:06:29.396Z,79.28
2023-10-28T15:08:56.502Z,79.21
2023-10-28T15:11:24.036Z,78.62
2023-10-28T15:13:51.314Z,79.50
2023-10-28T15:16:19.437Z,82.62
2023-10-28T15:18:46.849Z,86.41
2023-10-28T15:21:17.508Z,88.00
2023-10-28T15:23:44.834Z,86.64
2023-10-28T15:26:14.083Z,86.47
2023-10-28T15:28:42.061Z,87.07
2023-10-28T15:31:14.474Z,89.20
2023-10-28T15:33:42.558Z,91.31
2023-10-28T15:36:11.026Z,89.82
2023-10-28T15:38:39.041Z,88.38
2023-10-28T15:41:10.538Z,88.22
2023-10-28T15:43:41.130Z,88.96
2023-10-28T15:46:13.355Z,90.36
2023-10-28T15:48:41.309Z,91.01
2023-10-28T15:51:12.085Z,88.56
2023-10-28T15:53:40.716Z,87.22
2023-10-28T15:56:14.666Z,87.84
2023-10-28T15:58:42.270Z,89.17
2023-10-28T16:01:09.796Z,90.04
2023-10-28T16:03:37.426Z,88.88
2023-10-28T16:06:12.192Z,86.62
2023-10-28T16:08:40.497Z,86.73
2023-10-28T16:11:07.840Z,87.44
2023-10-28T16:13:36.257Z,89.13
2023-10-28T16:16:04.151Z,90.44
2023-10-28T16:18:31.484Z,89.13
2023-10-28T16:21:01.701Z,87.65
2023-10-28T16:23:29.281Z,88.29
2023-10-28T16:25:57.025Z,89.64
2023-10-28T16:28:24.497Z,90.79
2023-10-28T16:30:52.976Z,92.06
2023-10-28T16:33:20.254Z,89.35
2023-10-28T16:35:48.018Z,87.86
2023-10-28T16:38:27.887Z,88.17
2023-10-28T16:40:59.079Z,90.17
2023-10-28T16:43:26.546Z,91.68
2023-10-28T16:46:00.737Z,93.00
2023-10-28T16:48:27.895Z,90.14
2023-10-28T16:50:55.659Z,87.84
2023-10-28T16:53:26.918Z,88.03
2023-10-28T16:56:04.773Z,89.38
2023-10-28T16:58:32.163Z,90.92
2023-10-28T17:01:02.562Z,91.31
2023-10-28T17:03:33.950Z,88.82
2023-10-28T17:06:07.585Z,87.27
2023-10-28T17:08:34.957Z,87.39
2023-10-28T17:11:03.990Z,88.36
2023-10-28T17:13:32.284Z,90.06
2023-10-28T17:15:59.553Z,90.97
2023-10-28T17:18:26.778Z,89.09
2023-10-28T17:20:54.115Z,86.61
2023-10-28T17:23:21.315Z,86.22
2023-10-28T17:25:48.651Z,86.79
2023-10-28T17:28:16.053Z,87.60
2023-10-28T17:30:45.408Z,89.08
2023-10-28T17:33:12.950Z,88.57
2023-10-28T17:35:43.663Z,87.11
2023-10-28T17:38:11.574Z,87.27
2023-10-28T17:40:39.305Z,87.86
2023-10-28T17:43:06.458Z,89.34
2023-10-28T17:45:33.409Z,90.46
2023-10-28T17:48:02.224Z,89.49
2023-10-28T17:50:30.780Z,86.95
2023-10-28T17:52:58.028Z,86.21
2023-10-28T17:55:25.386Z,86.72
2023-10-28T17:57:52.495Z,87.42
2023-10-28T18:00:22.130Z,89.27
2023-10-28T18:02:49.311Z,90.88
2023-10-28T18:05:16.564Z,90.31
2023-10-28T18:07:46.286Z,86.70
2023-10-28T18:10:14.116Z,85.80
2023-10-28T18:12:41.473Z,86.53
2023-10-28T18:15:09.464Z,87.65
2023-10-28T18:17:36.667Z,88.99
2023-10-28T18:20:04.702Z,90.73
2023-10-28T18:22:32.115Z,89.92
2023-10-28T18:24:59.370Z,87.13
2023-10-28T18:27:26.531Z,86.12
2023-10-28T18:29:55.414Z,86.51
2023-10-28T18:32:23.315Z,87.79
2023-10-28T18:34:52.787Z,88.74
2023-10-28T18:37:19.833Z,89.98
2023-10-28T18:39:46.973Z,89.59
2023-10-28T18:42:14.226Z,87.09
2023-10-28T18:44:41.500Z,86.62
2023-10-28T18:47:09.889Z,87.02
2023-10-28T18:49:37.006Z,88.31
2023-10-28T18:52:05.122Z,89.85
2023-10-28T18:54:32.338Z,93.76
2023-10-28T18:56:59.434Z,92.73
2023-10-28T18:59:26.666Z,88.62
2023-10-28T19:01:55.160Z,87.66
2023-10-28T19:04:22.416Z,87.92
2023-10-28T19:06:49.720Z,88.79
2023-10-28T19:09:17.218Z,91.93
2023-10-28T19:11:44.258Z,94.66
2023-10-28T19:14:11.399Z,93.68
2023-10-28T19:16:38.543Z,89.99
2023-10-28T19:19:05.980Z,89.18
2023-10-28T19:21:33.541Z,88.96
2023-10-28T19:24:00.688Z,89.88
2023-10-28T19:26:27.957Z,91.42
2023-10-28T19:28:55.931Z,93.71
2023-10-28T19:31:23.085Z,92.18
2023-10-28T19:33:52.552Z,90.19
2023-10-28T19:36:20.022Z,89.72
2023-10-28T19:38:47.211Z,90.23
2023-10-28T19:41:14.562Z,90.70
2023-10-28T19:43:41.884Z,91.81
2023-10-28T19:46:09.770Z,91.73
2023-10-28T19:48:37.202Z,89.58
2023-10-28T19:51:08.269Z,89.18
2023-10-28T19:53:36.444Z,89.22
2023-10-28T19:56:04.387Z,90.22
2023-10-28T19:58:32.572Z,91.09
2023-10-28T20:01:00.125Z,92.04
2023-10-28T20:03:27.441Z,92.38
2023-10-28T20:05:54.728Z,90.14
2023-10-28T20:08:21.891Z,89.59
2023-10-28T20:10:49.024Z,90.10
2023-10-28T20:13:16.185Z,90.47
2023-10-28T20:15:43.222Z,91.28
2023-10-28T20:18:12.281Z,92.19
2023-10-28T20:20:39.458Z,92.87
2023-10-28T20:23:08.460Z,90.88
2023-10-28T20:25:35.629Z,89.70
2023-10-28T20:28:04.089Z,89.48
2023-10-28T20:30:32.415Z,90.08
2023-10-28T20:32:59.625Z,90.79
2023-10-28T20:35:26.705Z,92.31
2023-10-28T20:37:53.730Z,92.60
2023-10-28T20:40:20.862Z,90.15
2023-10-28T20:42:47.945Z,89.24
2023-10-28T20:45:34.933Z,89.67
2023-10-28T20:48:02.226Z,90.25
2023-10-28T20:50:32.570Z,91.13
2023-10-28T20:52:59.965Z,92.62
2023-10-28T20:55:27.340Z,92.51
2023-10-28T20:57:54.360Z,89.47
2023-10-28T21:00:21.747Z,88.01
2023-10-28T21:02:49.290Z,88.51
2023-10-28T21:05:17.003Z,88.84
2023-10-28T21:07:44.089Z,89.45
2023-10-28T21:10:11.141Z,90.24
2023-10-28T21:12:38.901Z,90.83
2023-10-28T21:15:07.073Z,88.78
2023-10-28T21:17:34.360Z,88.23
2023-10-28T21:20:01.780Z,88.18
2023-10-28T21:22:29.038Z,88.45
2023-10-28T21:24:56.288Z,88.94
2023-10-28T21:27:23.438Z,89.86
2023-10-28T21:29:51.368Z,90.16
2023-10-28T21:32:19.102Z,86.89
2023-10-28T21:34:49.503Z,85.42
2023-10-28T21:37:17.567Z,86.18
2023-10-28T21:39:44.611Z,86.57
2023-10-28T21:42:12.414Z,87.26
2023-10-28T21:44:40.587Z,88.25
2023-10-28T21:47:08.052Z,88.43
2023-10-28T21:49:35.568Z,86.69
2023-10-28T21:52:03.029Z,86.64
2023-10-28T21:54:30.278Z,87.37
2023-10-28T21:56:58.159Z,88.22
2023-10-28T21:59:25.331Z,88.95
2023-10-28T22:01:53.394Z,89.60
2023-10-28T22:04:20.436Z,89.48
2023-10-28T22:06:47.457Z,87.10
2023-10-28T22:09:14.512Z,86.62
2023-10-28T22:11:44.173Z,86.76
2023-10-28T22:14:11.195Z,88.09
2023-10-28T22:16:38.328Z,89.85
2023-10-28T22:19:05.562Z,91.48
2023-10-28T22:21:32.415Z,90.48
2023-10-28T22:23:59.353Z,88.64
2023-10-28T22:26:26.430Z,89.15
2023-10-28T22:28:53.344Z,90.20
2023-10-28T22:31:20.430Z,91.16
2023-10-28T22:33:47.436Z,92.54
2023-10-28T22:36:14.481Z,91.15
2023-10-28T22:38:41.466Z,88.87
2023-10-28T22:41:09.295Z,88.62
2023-10-28T22:43:36.460Z,89.65
2023-10-28T22:46:03.820Z,90.69
2023-10-28T22:48:30.925Z,92.25
2023-10-28T22:50:58.792Z,91.00
2023-10-28T22:53:26.414Z,89.06
2023-10-28T22:55:53.558Z,88.46
2023-10-28T22:58:20.571Z,89.17
2023-10-28T23:00:47.699Z,89.94
2023-10-28T23:03:15.150Z,90.56
2023-10-28T23:05:42.391Z,90.25
2023-10-28T23:08:09.811Z,88.65
2023-10-28T23:10:36.729Z,88.33
2023-10-28T23:13:03.784Z,88.87
2023-10-28T23:15:30.934Z,90.50
2023-10-28T23:17:58.030Z,91.82
2023-10-28T23:20:27.627Z,91.23
2023-10-28T23:22:56.471Z,88.95
2023-10-28T23:25:23.571Z,88.15
2023-10-28T23:27:50.785Z,88.42
2023-10-28T23:30:18.151Z,89.40
2023-10-28T23:32:45.463Z,90.93
2023-10-28T23:35:12.626Z,91.96
2023-10-28T23:37:39.881Z,91.34
2023-10-28T23:40:07.963Z,89.12
2023-10-28T23:42:35.547Z,88.79
2023-10-28T23:45:03.730Z,89.13
2023-10-28T23:47:31.204Z,89.97
2023-10-28T23:49:58.291Z,91.56
2023-10-28T23:52:25.247Z,93.52
2023-10-28T23:54:52.198Z,92.59
2023-10-28T23:57:19.230Z,90.05
2023-10-28T23:59:46.411Z,89.72
